• Join FlightAware (Why Join?)
  • Login
  • US Flag 
07:37AM EDT


 

Airport Tracker/Info


-or-


 

Live Flight TrackerFlight Track Log ✈ JBU356 ✈ 24-Apr-2013 ✈ KTPA - KBOS

Flight Track Log - Related Links

Times and Time Zones

All times are in EDT time to prevent confusion due to time zone crossing. See the JBU356 flight status page for this flight to view local times or setup timezone preferences in your user account.

Time Position Orientation Groundspeed Altitude Reporting Facility
EDT Latitude Longitude Course Direction KTS MPH feet Rate Location/Type
12:13PM 27.9667 -82.5500 North 152 175 700  Level Tampa TRACON
12:16PM 28.4314 -82.5715 355° North  Level FlightAware Approximate
12:16PM 27.9264 -82.6483 245° Southwest 207 238 7,900  Level Jacksonville Center
12:17PM 28.5487 -82.5832 355° North  Level FlightAware Approximate
12:17PM 28.0100 -82.6339 North 308 354 10,600  Level Jacksonville Center
12:18PM 28.6664 -82.5833 North  Level FlightAware Approximate
12:18PM 28.1036 -82.6197 North 334 384 11,900  Level Jacksonville Center
12:19PM 28.2058 -82.6053 North 365 420 13,700 2,040 Climbing Jacksonville Center
12:20PM 28.3083 -82.6072 359° North 376 433 16,000 2,040 Climbing Jacksonville Center
12:21PM 28.4167 -82.6117 358° North 382 440 17,800 1,980 Climbing Jacksonville Center
12:22PM 28.5272 -82.6233 355° North 389 448 20,000 1,860 Climbing Jacksonville Center
12:23PM 28.6381 -82.6300 357° North 389 448 21,600 1,560 Climbing Jacksonville Center
12:24PM 28.7528 -82.6417 355° North 399 459 23,200 1,500 Climbing Jacksonville Center
12:25PM 28.8717 -82.6483 357° North 409 471 24,700 1,440 Climbing Jacksonville Center
12:26PM 28.9886 -82.6575 356° North 414 476 26,100 1,380 Climbing Jacksonville Center
12:27PM 29.1078 -82.6692 355° North 424 488 27,500 1,200 Climbing Jacksonville Center
12:28PM 29.2289 -82.6783 356° North 424 488 28,600 1,020 Climbing Jacksonville Center
12:29PM 29.3539 -82.6878 356° North 429 494 29,600 1,200 Climbing Jacksonville Center
12:30PM 29.4731 -82.6922 358° North 429 494 31,100 1,500 Climbing Jacksonville Center
12:31PM 29.6086 -82.6942 359° North 436 502 32,600 1,440 Climbing Jacksonville Center
12:32PM 29.7256 -82.6917 North 430 495 34,000 1,140 Climbing Jacksonville Center
12:33PM 29.8425 -82.6939 359° North 425 489 34,900 480 Climbing Jacksonville Center
12:34PM 29.9617 -82.6936 360° North 420 483 35,000  Climbing Jacksonville Center
12:35PM 30.0783 -82.6861 North 420 483 35,000  Level Jacksonville Center
12:36PM 30.1975 -82.6569 12° North 420 483 35,000 -60 Level Jacksonville Center
12:37PM 30.3122 -82.6328 10° North 425 489 34,900 -60 Descending Jacksonville Center
12:38PM 30.4311 -82.6011 13° North 430 495 34,900  Level Jacksonville Center
12:39PM 30.5500 -82.5717 12° North 430 495 35,000  Climbing Jacksonville Center
12:40PM 30.6669 -82.5425 12° North 430 495 35,000  Level Jacksonville Center
12:41PM 30.7881 -82.5128 12° North 430 495 35,000  Level Jacksonville Center
12:42PM 30.9028 -82.4833 12° North 430 495 35,000  Level Jacksonville Center
12:43PM 31.0194 -82.4344 20° North 430 495 35,000  Level Jacksonville Center
12:44PM 31.1342 -82.3828 21° North 437 503 35,000  Level Jacksonville Center
12:45PM 31.2508 -82.3264 22° Northeast 448 516 35,000 -300 Level Jacksonville Center
12:46PM 31.3653 -82.2697 23° Northeast 448 516 34,500 -600 Descending Jacksonville Center
12:47PM 31.4675 -82.2228 21° North 442 509 33,800 -780 Descending Jacksonville Center
12:48PM 31.5839 -82.1633 24° Northeast 442 509 33,000 -420 Descending Jacksonville Center
12:49PM 31.7089 -82.0989 24° Northeast 442 509 33,000  Level Jacksonville Center
12:50PM 31.8131 -82.0492 22° Northeast 437 503 33,000  Level Jacksonville Center
12:51PM 31.9378 -81.9819 25° Northeast 437 503 33,000  Level Jacksonville Center
12:52PM 32.0353 -81.9072 33° Northeast 448 516 33,000  Level Jacksonville Center
12:53PM 32.1450 -81.8008 39° Northeast 455 524 33,000  Level Jacksonville Center
12:54PM 32.2444 -81.7061 39° Northeast 460 529 33,000  Level Jacksonville Center
12:55PM 32.3292 -81.6117 43° Northeast 460 529 33,000  Level Jacksonville Center
12:56PM 32.4133 -81.4703 55° Northeast 468 539 33,000 300 Level Jacksonville Center
12:57PM 32.5058 -81.3653 44° Northeast 468 539 33,600 720 Climbing Jacksonville Center
12:58PM 32.5989 -81.2797 38° Northeast 461 531 34,500 840 Climbing Jacksonville Center
12:59PM 32.7103 -81.1717 39° Northeast 466 536 35,300 1,020 Climbing Jacksonville Center
01:00PM 32.8153 -81.0783 37° Northeast 466 536 36,600 780 Climbing Jacksonville Center
01:01PM 32.9017 -80.9950 39° Northeast 460 529 36,900 180 Climbing Jacksonville Center
01:02PM 33.0006 -80.9011 39° Northeast 460 529 37,000  Climbing Jacksonville Center
01:03PM 33.1033 -80.8047 38° Northeast 460 529 37,000  Level Jacksonville Center
01:04PM 33.2019 -80.7131 38° Northeast 455 524 37,000  Level Jacksonville Center
01:05PM 33.3025 -80.6161 39° Northeast 455 524 37,000  Level Jacksonville Center
01:06PM 33.4008 -80.5164 40° Northeast 460 529 37,000  Level Jacksonville Center
01:07PM 33.4861 -80.3922 51° Northeast 460 529 37,000 -60 Level Jacksonville Center
01:08PM 33.5478 -80.2508 62° Northeast 473 544 36,900  Descending Jacksonville Center
01:09PM 33.6011 -80.0997 67° East 479 551 37,000  Climbing Jacksonville Center
01:10PM 33.6558 -79.9458 67° East 484 557 37,000  Level Jacksonville Center
01:11PM 33.7064 -79.7894 69° East 494 568 37,000  Level Jacksonville Center
01:12PM 33.7608 -79.6350 67° East 494 568 37,000  Level Jacksonville Center
01:13PM 33.8197 -79.4853 65° Northeast 494 568 37,000  Level Jacksonville Center
01:14PM 33.8869 -79.3553 58° Northeast 473 544 37,000  Level Jacksonville Center
01:17PM 34.1469 -79.1150 37° Northeast 449 517 37,000 -60 Level Washington Center
01:18PM 34.2536 -79.0392 30° Northeast 449 517 36,900 -60 Descending Washington Center
01:19PM 34.3581 -78.9606 32° Northeast 449 517 36,900  Level Washington Center
01:20PM 34.4625 -78.8817 32° Northeast 443 510 36,900  Level Washington Center
01:21PM 34.5564 -78.8047 34° Northeast 443 510 37,000  Climbing Washington Center
01:22PM 34.6608 -78.7256 32° Northeast 443 510 37,000  Level Washington Center
01:23PM 34.7778 -78.6364 32° Northeast 450 518 37,000  Level Washington Center
01:24PM 34.8694 -78.5639 33° Northeast 442 509 37,000  Level Washington Center
01:25PM 34.9756 -78.4842 32° Northeast 442 509 37,000  Level Washington Center
01:26PM 35.0778 -78.4042 33° Northeast 447 514 37,000  Level Washington Center
01:27PM 35.1839 -78.3214 33° Northeast 447 514 37,000  Level Washington Center
01:28PM 35.2900 -78.2383 33° Northeast 447 514 37,000  Level Washington Center
01:29PM 35.4069 -78.1481 32° Northeast 447 514 37,000  Level Washington Center
01:30PM 35.5128 -78.0672 32° Northeast 447 514 37,000  Level Washington Center
01:31PM 35.6231 -77.9839 32° Northeast 447 514 37,000  Level Washington Center
01:32PM 35.7292 -77.9000 33° Northeast 447 514 37,000  Level Washington Center
01:33PM 35.8369 -77.8158 32° Northeast 452 520 37,000  Level Washington Center
01:34PM 35.9472 -77.7292 32° Northeast 457 526 37,000  Level Washington Center
01:35PM 36.0511 -77.6369 36° Northeast 457 526 37,000  Level Washington Center
01:36PM 36.1547 -77.5419 37° Northeast 457 526 37,000  Level Washington Center
01:37PM 36.2417 -77.4592 38° Northeast 448 516 37,000  Level Washington Center
01:38PM 36.3453 -77.3611 37° Northeast 442 509 37,000  Level Washington Center
01:39PM 36.4469 -77.2678 36° Northeast 442 509 37,000  Level Washington Center
01:40PM 36.5483 -77.1692 38° Northeast 447 514 37,000  Level Washington Center
01:41PM 36.6519 -77.0703 37° Northeast 452 520 37,000  Level Washington Center
01:42PM 36.7553 -76.9736 37° Northeast 452 520 37,000  Level Washington Center
01:43PM 36.8606 -76.8794 36° Northeast 463 533 37,000  Level Washington Center
01:44PM 36.9764 -76.7747 36° Northeast 463 533 37,000  Level Washington Center
01:45PM 37.0817 -76.6800 36° Northeast 463 533 37,000  Level Washington Center
01:46PM 37.1847 -76.5850 36° Northeast 458 527 37,000  Level Washington Center
01:47PM 37.2875 -76.4897 36° Northeast 458 527 37,000  Level Washington Center
01:48PM 37.3906 -76.3969 36° Northeast 458 527 37,000  Level Washington Center
01:49PM 37.4953 -76.2986 37° Northeast 458 527 37,000  Level Washington Center
01:50PM 37.6003 -76.2078 34° Northeast 458 527 37,000 -60 Level Washington Center
01:51PM 37.6944 -76.1272 34° Northeast 458 527 36,900  Descending Washington Center
01:52PM 37.8033 -76.0175 39° Northeast 453 521 37,000  Climbing Washington Center
01:53PM 37.8975 -75.9311 36° Northeast 453 521 37,000  Level Washington Center
01:54PM 37.9997 -75.8342 37° Northeast 458 527 37,000  Level Washington Center
01:56PM 38.2022 -75.6444 36° Northeast 453 521 37,000  Level Washington Center
01:57PM 38.3025 -75.5519 36° Northeast 458 527 37,000  Level Washington Center
01:58PM 38.4192 -75.4831 25° Northeast 452 520 37,000  Level Washington Center
01:59PM 38.5358 -75.4350 18° North 439 505 37,000  Level Washington Center
02:00PM 38.6503 -75.3817 20° North 439 505 37,000  Level Washington Center
02:01PM 38.7692 -75.3386 16° North 439 505 37,000  Level Washington Center
02:02PM 38.8878 -75.2903 18° North 439 505 37,000  Level Washington Center
02:03PM 39.0044 -75.2336 21° North 439 505 37,000  Level Washington Center
02:04PM 39.1253 -75.1931 15° North 444 511 37,000  Level Washington Center
02:05PM 39.2439 -75.1361 20° North 444 511 37,000  Level Washington Center
02:06PM 39.3539 -75.0600 28° Northeast 444 511 37,000  Level Washington Center
02:07PM 39.4556 -74.9600 37° Northeast 449 517 37,000 -60 Level Washington Center
02:08PM 39.5569 -74.8594 37° Northeast 454 522 36,900 -60 Descending Washington Center
02:09PM 39.6586 -74.7561 38° Northeast 454 522 36,900  Level Washington Center
02:10PM 39.7597 -74.6567 37° Northeast 458 527 37,000  Climbing New York Center
02:11PM 39.8525 -74.5644 37° Northeast 458 527 37,000  Level New York Center
02:12PM 39.9558 -74.4619 37° Northeast 458 527 37,000  Level New York Center
02:13PM 40.0550 -74.3586 39° Northeast 458 527 37,000 -60 Level New York Center
02:14PM 40.1581 -74.2581 37° Northeast 451 519 36,900 -60 Descending New York Center
02:15PM 40.2589 -74.1572 37° Northeast 451 519 36,900 -600 Level New York Center
02:16PM 40.3578 -74.0531 39° Northeast 451 519 35,800 -1,620 Descending New York Center
02:17PM 40.4583 -73.9514 38° Northeast 451 519 33,700 -2,220 Descending New York Center
02:18PM 40.5592 -73.8469 38° Northeast 457 526 31,400 -2,280 Descending New York Center
02:19PM 40.6600 -73.7367 40° Northeast 457 526 29,200 -2,220 Descending New York Center
02:21PM 40.8728 -73.4144 49° Northeast 480 552 24,000 -1,560 Descending Boston Center
02:22PM 40.9633 -73.2867 47° Northeast 456 525 24,000 -240 Level Boston Center
02:23PM 41.0456 -73.1667 48° Northeast 443 510 23,600 -540 Descending Boston Center
02:24PM 41.1253 -73.0628 44° Northeast 436 502 23,000 -300 Descending Boston Center
02:25PM 41.2197 -72.9561 40° Northeast 436 502 23,000  Level Boston Center
02:26PM 41.2847 -72.8186 58° Northeast 436 502 23,000  Level Boston Center
02:27PM 41.3372 -72.6642 66° East 441 507 23,000  Level Boston Center
02:28PM 41.3856 -72.5092 67° East 441 507 23,000 -300 Level Boston Center
02:29PM 41.4314 -72.3597 68° East 441 507 22,400 -1,260 Descending Boston Center
02:30PM 41.4769 -72.2183 67° East 429 494 20,500 -2,040 Descending Boston Center
02:31PM 41.5225 -72.0797 66° East 415 478 18,400 -2,100 Descending Boston Center
02:32PM 41.5656 -71.9436 67° East 410 472 16,400 -1,980 Descending Boston Center
02:33PM 41.6089 -71.8100 67° East 397 457 14,500 -1,800 Descending Boston Center
02:34PM 41.6475 -71.6817 68° East 382 440 12,900 -1,440 Descending Boston Center
02:35PM 41.6903 -71.5450 67° East 366 421 11,700 -960 Descending Boston Center
02:36PM 41.7228 -71.4500 65° Northeast 342 394 11,000 -360 Descending Boston Center
02:37PM 41.7803 -71.3572 50° Northeast 327 376 11,000  Level Boston Center
02:38PM 41.8567 -71.2583 44° Northeast 315 362 11,000  Level Boston Center
02:39PM 41.9353 -71.2206 20° North 305 351 11,000 -900 Level Boston Center
02:40PM 42.0017 -71.1858 21° North 274 315 9,200 -2,040 Descending Boston Center
02:41PM 42.0661 -71.1619 15° North 249 287 7,000 -1,680 Descending Boston Center
02:42PM 42.1306 -71.1494 North 238 274 5,900 -960 Descending Boston Center
02:43PM 42.1886 -71.1286 15° North 233 268 5,100 -1,500 Descending Boston Center
02:44PM 42.2167 -71.1000 37° Northeast 210 242 3,700 -1,920 Descending KA90
02:45PM 42.2667 -71.0667 26° Northeast 208 239 2,500 -1,440 Descending KA90
02:46PM 42.3167 -71.0333 26° Northeast 177 204 1,000 -1,140 Descending KA90
02:47PM 42.3500 -71.0167 20° North 148 170 300 -720 Descending KA90